createdAt,value
2022-08-18T00:01:36.671Z,100390.72
2022-08-18T00:04:29.897Z,100400.13
2022-08-18T00:06:54.747Z,100393.75
2022-08-18T00:09:21.774Z,100396.00
2022-08-18T00:11:48.837Z,100393.13
2022-08-18T00:14:22.613Z,100405.25
2022-08-18T00:16:53.704Z,100396.44
2022-08-18T00:19:46.269Z,100391.09
2022-08-18T00:22:15.818Z,100395.84
2022-08-18T00:24:48.345Z,100394.59
2022-08-18T00:27:28.473Z,100398.47
2022-08-18T00:30:00.545Z,100393.75
2022-08-18T00:32:36.973Z,100392.50
2022-08-18T00:35:18.380Z,100395.59
2022-08-18T00:37:45.781Z,100389.44
2022-08-18T00:40:22.589Z,100391.91
2022-08-18T00:43:00.622Z,100382.69
2022-08-18T00:45:37.395Z,100378.34
2022-08-18T00:48:08.146Z,100369.16
2022-08-18T00:51:06.627Z,100379.00
2022-08-18T00:54:01.472Z,100382.88
2022-08-18T00:56:44.205Z,100375.09
2022-08-18T00:59:35.499Z,100378.16
2022-08-18T01:02:10.431Z,100374.03
2022-08-18T01:05:16.918Z,100369.75
2022-08-18T01:07:49.020Z,100370.78
2022-08-18T01:10:21.632Z,100365.84
2022-08-18T01:12:54.910Z,100360.09
2022-08-18T01:15:28.887Z,100355.19
2022-08-18T01:18:23.050Z,100357.00
2022-08-18T01:21:37.972Z,100356.00
2022-08-18T01:24:12.828Z,100354.16
2022-08-18T01:26:46.364Z,100359.47
2022-08-18T01:29:18.592Z,100360.91
2022-08-18T01:31:56.056Z,100366.38
2022-08-18T01:34:28.258Z,100367.59
2022-08-18T01:36:56.546Z,100369.25
2022-08-18T01:40:59.566Z,100367.00
2022-08-18T01:42:13.405Z,100364.59
2022-08-18T01:44:41.653Z,100370.09
2022-08-18T01:47:11.807Z,100371.31
2022-08-18T01:49:43.003Z,100366.16
2022-08-18T01:52:20.264Z,100360.66
2022-08-18T01:54:48.706Z,100357.75
2022-08-18T01:57:18.406Z,100353.25
2022-08-18T01:59:45.609Z,100353.28
2022-08-18T02:02:20.306Z,100349.81
2022-08-18T02:04:48.941Z,100356.63
2022-08-18T02:07:15.953Z,100348.41
2022-08-18T02:09:46.047Z,100349.44
2022-08-18T02:12:18.010Z,100348.53
2022-08-18T02:14:45.042Z,100343.56
2022-08-18T02:17:14.429Z,100329.44
2022-08-18T02:19:46.490Z,100341.69
2022-08-18T02:22:19.491Z,100332.69
2022-08-18T02:24:47.593Z,100340.63
2022-08-18T02:27:16.557Z,100332.72
2022-08-18T02:29:43.578Z,100341.94
2022-08-18T02:32:10.676Z,100328.25
2022-08-18T02:34:37.769Z,100327.78
2022-08-18T02:37:05.285Z,100326.84
2022-08-18T02:39:37.971Z,100329.56
2022-08-18T02:42:08.993Z,100323.28
2022-08-18T02:44:36.382Z,100324.56
2022-08-18T02:47:03.740Z,100327.25
2022-08-18T02:49:30.797Z,100325.44
2022-08-18T02:51:58.425Z,100325.09
2022-08-18T02:54:26.059Z,100334.72
2022-08-18T02:56:53.656Z,100340.16
2022-08-18T02:59:27.627Z,100339.38
2022-08-18T03:01:56.472Z,100338.63
2022-08-18T03:04:29.856Z,100337.31
2022-08-18T03:07:03.833Z,100326.78
2022-08-18T03:09:34.319Z,100330.22
2022-08-18T03:12:02.599Z,100335.97
2022-08-18T03:14:30.336Z,100327.78
2022-08-18T03:16:57.666Z,100328.06
2022-08-18T03:19:29.027Z,100329.59
2022-08-18T03:22:03.229Z,100334.75
2022-08-18T03:24:32.488Z,100332.84
2022-08-18T03:27:01.612Z,100340.13
2022-08-18T03:29:32.514Z,100340.00
2022-08-18T03:32:03.080Z,100340.47
2022-08-18T03:34:31.531Z,100336.31
2022-08-18T03:36:59.262Z,100330.16
2022-08-18T03:39:27.968Z,100327.47
2022-08-18T03:42:01.181Z,100329.25
2022-08-18T03:44:38.152Z,100333.84
2022-08-18T03:47:10.842Z,100342.28
2022-08-18T03:49:38.805Z,100347.41
2022-08-18T03:52:10.139Z,100350.69
2022-08-18T03:54:38.790Z,100351.81
2022-08-18T03:57:10.007Z,100357.97
2022-08-18T03:59:38.180Z,100349.06
2022-08-18T04:02:05.707Z,100348.59
2022-08-18T04:04:33.571Z,100355.13
2022-08-18T04:07:10.657Z,100355.69
2022-08-18T04:09:38.977Z,100357.91
2022-08-18T04:12:13.500Z,100358.38
2022-08-18T04:14:48.868Z,100366.88
2022-08-18T04:17:23.782Z,100358.66
2022-08-18T04:19:54.256Z,100371.16
2022-08-18T04:22:22.705Z,100364.28
2022-08-18T04:24:51.306Z,100372.66
2022-08-18T04:27:21.219Z,100377.41
2022-08-18T04:29:48.757Z,100368.53
2022-08-18T04:32:16.201Z,100379.91
2022-08-18T04:34:43.289Z,100371.28
2022-08-18T04:37:10.860Z,100380.22
2022-08-18T04:39:38.343Z,100374.28
2022-08-18T04:42:05.960Z,100374.56
2022-08-18T04:44:34.319Z,100374.75
2022-08-18T04:47:02.138Z,100375.63
2022-08-18T04:49:30.291Z,100370.28
2022-08-18T04:52:34.362Z,100369.25
2022-08-18T04:55:05.650Z,100369.69
2022-08-18T04:57:34.129Z,100363.88
2022-08-18T05:00:04.697Z,100366.50
2022-08-18T05:02:33.051Z,100374.94
2022-08-18T05:05:01.519Z,100374.81
2022-08-18T05:07:30.351Z,100367.06
2022-08-18T05:09:57.384Z,100373.75
2022-08-18T05:12:26.400Z,100376.88
2022-08-18T05:14:56.979Z,100377.47
2022-08-18T05:17:28.439Z,100390.16
2022-08-18T05:19:58.681Z,100387.88
2022-08-18T05:22:28.798Z,100389.16
2022-08-18T05:25:00.076Z,100392.88
2022-08-18T05:27:33.906Z,100386.97
2022-08-18T05:30:02.520Z,100389.22
2022-08-18T05:32:46.993Z,100388.00
2022-08-18T05:35:26.495Z,100396.66
2022-08-18T05:38:39.924Z,100398.31
2022-08-18T05:41:33.753Z,100391.56
2022-08-18T05:44:01.445Z,100388.91
2022-08-18T05:46:56.474Z,100396.94
2022-08-18T05:49:27.356Z,100396.38
2022-08-18T05:52:06.760Z,100396.78
2022-08-18T05:55:14.117Z,100401.75
2022-08-18T05:58:01.930Z,100396.00
2022-08-18T06:00:30.650Z,100400.53
2022-08-18T06:02:59.919Z,100400.94
2022-08-18T06:05:57.733Z,100397.25
2022-08-18T06:08:41.643Z,100391.09
2022-08-18T06:11:22.587Z,100399.31
2022-08-18T06:13:54.279Z,100402.78
2022-08-18T06:16:45.223Z,100402.19
2022-08-18T06:19:49.431Z,100398.03
2022-08-18T06:22:59.918Z,100397.41
2022-08-18T06:26:08.422Z,100392.00
2022-08-18T06:28:55.313Z,100406.25
2022-08-18T06:32:01.325Z,100404.00
2022-08-18T06:34:43.924Z,100409.84
2022-08-18T06:37:30.782Z,100419.03
2022-08-18T06:39:58.287Z,100419.00
2022-08-18T06:42:31.467Z,100424.84
2022-08-18T06:45:12.696Z,100425.97
2022-08-18T06:48:24.439Z,100412.75
2022-08-18T06:51:01.709Z,100415.28
2022-08-18T06:53:58.134Z,100418.25
2022-08-18T06:56:51.555Z,100414.97
2022-08-18T06:59:26.331Z,100416.34
2022-08-18T07:02:24.649Z,100409.69
2022-08-18T07:05:19.665Z,100409.97
2022-08-18T07:08:10.866Z,100415.03
2022-08-18T07:10:45.667Z,100419.72
2022-08-18T07:13:30.184Z,100417.28
2022-08-18T07:16:56.734Z,100429.75
2022-08-18T07:19:20.904Z,100435.22
2022-08-18T07:22:17.332Z,100428.28
2022-08-18T07:24:50.363Z,100432.16
2022-08-18T07:27:39.731Z,100424.97
2022-08-18T07:30:19.306Z,100425.69
2022-08-18T07:32:56.673Z,100423.31
2022-08-18T07:35:58.363Z,100415.69
2022-08-18T07:38:44.134Z,100415.00
2022-08-18T07:41:37.724Z,100417.28
2022-08-18T07:44:18.362Z,100417.22
2022-08-18T07:47:33.360Z,100416.91
2022-08-18T07:50:26.855Z,100426.59
2022-08-18T07:53:54.564Z,100420.09
2022-08-18T07:57:20.504Z,100423.63
2022-08-18T08:00:03.425Z,100424.38
2022-08-18T08:02:45.103Z,100420.34
2022-08-18T08:07:23.536Z,100428.78
2022-08-18T08:10:01.373Z,100431.22
2022-08-18T08:13:08.107Z,100442.16
2022-08-18T08:16:09.317Z,100441.13
2022-08-18T08:19:12.561Z,100446.88
2022-08-18T08:22:01.011Z,100445.31
2022-08-18T08:25:22.443Z,100445.72
2022-08-18T08:28:30.169Z,100445.25
2022-08-18T08:31:33.124Z,100446.59
2022-08-18T08:34:24.707Z,100448.53
2022-08-18T08:37:02.882Z,100454.97
2022-08-18T08:39:53.977Z,100448.56
2022-08-18T08:43:00.677Z,100455.91
2022-08-18T08:45:47.983Z,100455.97
2022-08-18T08:48:26.722Z,100453.03
2022-08-18T08:51:33.726Z,100445.66
2022-08-18T08:54:30.684Z,100447.84
2022-08-18T08:57:01.417Z,100447.03
2022-08-18T08:59:28.736Z,100447.50
2022-08-18T09:02:50.690Z,100439.84
2022-08-18T09:05:46.309Z,100454.09
2022-08-18T09:09:17.516Z,100442.47
2022-08-18T09:12:25.849Z,100435.41
2022-08-18T09:15:33.825Z,100431.66
2022-08-18T09:18:31.383Z,100432.09
2022-08-18T09:21:45.524Z,100429.84
2022-08-18T09:24:24.624Z,100423.75
2022-08-18T09:27:43.576Z,100415.53
2022-08-18T09:30:42.157Z,100411.28
2022-08-18T09:33:32.462Z,100411.84
2022-08-18T09:36:15.257Z,100399.00
2022-08-18T09:39:36.543Z,100410.03
2022-08-18T09:48:43.128Z,100401.13
2022-08-18T09:50:37.389Z,100406.09
2022-08-18T09:51:17.642Z,100393.16
2022-08-18T09:53:53.735Z,100393.16
2022-08-18T09:56:54.249Z,100387.53
2022-08-18T09:59:35.051Z,100372.81
2022-08-18T10:02:24.102Z,100375.09
2022-08-18T10:05:17.230Z,100376.81
2022-08-18T10:08:06.077Z,100373.22
2022-08-18T10:11:20.493Z,100372.25
2022-08-18T10:14:42.289Z,100367.81
2022-08-18T10:17:35.892Z,100363.56
2022-08-18T10:20:55.401Z,100364.13
2022-08-18T10:24:29.924Z,100356.94
2022-08-18T10:26:54.481Z,100353.00
2022-08-18T10:29:25.906Z,100353.53
2022-08-18T10:31:56.081Z,100355.91
2022-08-18T10:34:52.554Z,100359.06
2022-08-18T10:37:44.455Z,100348.88
2022-08-18T10:40:14.107Z,100353.50
2022-08-18T10:43:26.986Z,100348.88
2022-08-18T10:46:24.445Z,100353.97
2022-08-18T10:48:44.590Z,100351.34
2022-08-18T10:51:30.454Z,100353.66
2022-08-18T10:55:03.342Z,100349.78
2022-08-18T10:58:02.427Z,100341.94
2022-08-18T11:01:22.355Z,100349.38
2022-08-18T11:04:33.895Z,100342.16
2022-08-18T11:07:24.186Z,100336.69
2022-08-18T11:10:27.930Z,100341.31
2022-08-18T11:13:35.930Z,100329.81
2022-08-18T11:16:17.030Z,100320.63
2022-08-18T11:18:57.111Z,100325.16
2022-08-18T11:21:42.208Z,100315.19
2022-08-18T11:24:26.123Z,100316.53
2022-08-18T11:27:16.812Z,100315.06
2022-08-18T11:29:44.612Z,100316.81
2022-08-18T11:32:39.384Z,100317.63
2022-08-18T11:35:20.115Z,100305.94
2022-08-18T11:38:03.188Z,100305.28
2022-08-18T11:43:39.079Z,100315.69
2022-08-18T11:46:29.523Z,100312.09
2022-08-18T11:49:01.568Z,100315.72
2022-08-18T11:51:33.377Z,100310.84
2022-08-18T11:54:12.854Z,100305.44
2022-08-18T11:56:40.060Z,100301.28
2022-08-18T11:59:55.010Z,100306.88
2022-08-18T12:02:26.078Z,100292.72
2022-08-18T12:05:10.341Z,100288.81
2022-08-18T12:07:57.066Z,100286.66
2022-08-18T12:13:25.453Z,100286.09
2022-08-18T12:16:35.268Z,100292.28
2022-08-18T12:19:06.043Z,100300.72
2022-08-18T12:21:53.658Z,100291.38
2022-08-18T12:24:36.922Z,100291.84
2022-08-18T12:27:12.204Z,100289.31
2022-08-18T12:29:47.913Z,100284.78
2022-08-18T12:32:17.592Z,100289.66
2022-08-18T12:34:48.445Z,100277.34
2022-08-18T12:37:58.179Z,100279.97
2022-08-18T12:40:15.912Z,100283.41
2022-08-18T12:42:43.072Z,100275.53
2022-08-18T12:45:10.590Z,100270.47
2022-08-18T12:47:41.042Z,100265.78
2022-08-18T12:50:09.853Z,100258.75
2022-08-18T12:52:37.712Z,100258.22
2022-08-18T12:55:08.738Z,100256.66
2022-08-18T12:57:55.779Z,100250.28
2022-08-18T13:00:27.742Z,100259.03
2022-08-18T13:02:57.328Z,100253.63
2022-08-18T13:05:26.399Z,100249.28
2022-08-18T13:08:09.655Z,100243.72
2022-08-18T13:10:46.684Z,100246.47
2022-08-18T13:13:18.982Z,100244.59
2022-08-18T13:15:57.993Z,100246.41
2022-08-18T13:18:28.592Z,100237.97
2022-08-18T13:21:00.179Z,100238.88
2022-08-18T13:23:28.381Z,100229.13
2022-08-18T13:25:59.332Z,100225.13
2022-08-18T13:28:35.705Z,100230.50
2022-08-18T13:31:17.137Z,100223.06
2022-08-18T13:33:57.001Z,100219.16
2022-08-18T13:36:45.985Z,100210.91
2022-08-18T13:39:21.968Z,100217.91
2022-08-18T13:41:52.876Z,100210.28
2022-08-18T13:44:22.681Z,100216.66
2022-08-18T13:46:55.473Z,100218.72
2022-08-18T13:49:29.830Z,100220.31
2022-08-18T13:52:00.282Z,100211.50
2022-08-18T13:54:35.978Z,100217.72
2022-08-18T13:57:04.877Z,100224.97
2022-08-18T13:59:34.077Z,100213.31
2022-08-18T14:02:08.531Z,100203.88
2022-08-18T14:04:38.358Z,100204.97
2022-08-18T14:07:10.448Z,100208.28
2022-08-18T14:09:38.867Z,100213.34
2022-08-18T14:12:27.034Z,100208.03
2022-08-18T14:14:57.120Z,100203.06
2022-08-18T14:17:26.167Z,100206.00
2022-08-18T14:20:21.573Z,100212.41
2022-08-18T14:23:21.538Z,100185.66
2022-08-18T14:26:09.471Z,100200.09
2022-08-18T14:28:38.430Z,100215.00
2022-08-18T14:31:08.617Z,100208.13
2022-08-18T14:33:50.402Z,100225.25
2022-08-18T14:36:20.520Z,100256.50
2022-08-18T14:39:01.543Z,100271.16
2022-08-18T14:41:29.514Z,100285.13
2022-08-18T14:44:12.865Z,100275.38
2022-08-18T14:46:52.433Z,100255.69
2022-08-18T14:49:29.100Z,100253.81
2022-08-18T14:52:01.001Z,100253.34
2022-08-18T14:54:30.683Z,100253.06
2022-08-18T14:57:01.714Z,100256.66
2022-08-18T14:59:34.368Z,100261.09
2022-08-18T15:02:13.069Z,100257.22
2022-08-18T15:04:53.231Z,100258.28
2022-08-18T15:07:25.880Z,100263.44
2022-08-18T15:10:15.536Z,100262.53
2022-08-18T15:12:40.981Z,100262.53
2022-08-18T15:15:15.882Z,100260.59
2022-08-18T15:17:50.047Z,100264.78
2022-08-18T15:20:28.646Z,100251.97
2022-08-18T15:23:22.847Z,100235.69
2022-08-18T15:25:52.574Z,100237.22
2022-08-18T15:28:25.340Z,100237.16
2022-08-18T15:33:40.523Z,100259.75
2022-08-18T15:36:10.244Z,100255.41
2022-08-18T15:38:38.400Z,100256.03
2022-08-18T15:41:05.930Z,100246.59
2022-08-18T15:43:33.798Z,100239.13
2022-08-18T15:46:01.393Z,100234.13
2022-08-18T15:48:30.781Z,100237.00
2022-08-18T15:50:57.777Z,100239.06
2022-08-18T15:53:39.989Z,100241.25
2022-08-18T15:56:21.443Z,100265.97
2022-08-18T15:58:50.403Z,100272.13
2022-08-18T16:01:30.223Z,100266.13
2022-08-18T16:04:01.096Z,100281.03
2022-08-18T16:06:32.177Z,100286.03
2022-08-18T16:09:01.566Z,100293.53
2022-08-18T16:11:29.984Z,100307.06
2022-08-18T16:13:58.978Z,100311.38
2022-08-18T16:16:35.611Z,100335.28
2022-08-18T16:19:06.714Z,100341.72
2022-08-18T16:21:38.368Z,100337.84
2022-08-18T16:24:06.876Z,100341.84
2022-08-18T16:26:33.932Z,100356.16
2022-08-18T16:29:01.988Z,100345.13
2022-08-18T16:31:29.846Z,100339.41
2022-08-18T16:33:58.265Z,100330.66
2022-08-18T16:36:26.351Z,100333.81
2022-08-18T16:38:56.154Z,100342.31
2022-08-18T16:41:26.422Z,100353.50
2022-08-18T16:43:53.454Z,100351.56
2022-08-18T16:46:27.101Z,100354.44
2022-08-18T16:48:57.443Z,100370.31
2022-08-18T16:51:28.313Z,100379.78
2022-08-18T16:53:55.513Z,100389.88
2022-08-18T16:56:28.205Z,100394.59
2022-08-18T16:59:15.117Z,100396.81
2022-08-18T17:02:01.459Z,100394.41
2022-08-18T17:04:34.783Z,100400.50
2022-08-18T17:07:05.056Z,100418.38
2022-08-18T17:09:34.199Z,100433.34
2022-08-18T17:12:02.374Z,100437.69
2022-08-18T17:14:32.164Z,100431.25
2022-08-18T17:17:00.475Z,100418.59
2022-08-18T17:19:33.673Z,100405.03
2022-08-18T17:22:03.358Z,100406.69
2022-08-18T17:24:32.038Z,100385.97
2022-08-18T17:27:25.759Z,100374.88
2022-08-18T17:30:17.340Z,100366.06
2022-08-18T17:33:12.987Z,100366.28
2022-08-18T17:35:46.271Z,100361.31
2022-08-18T17:38:37.676Z,100351.09
2022-08-18T17:41:06.160Z,100338.16
2022-08-18T17:46:30.247Z,100315.59
2022-08-18T17:49:13.228Z,100317.03
2022-08-18T17:51:55.222Z,100301.59
2022-08-18T17:54:43.498Z,100293.97
2022-08-18T17:57:29.445Z,100283.13
2022-08-18T18:00:13.770Z,100279.06
2022-08-18T18:02:48.061Z,100276.22
2022-08-18T18:05:20.769Z,100282.16
2022-08-18T18:07:50.492Z,100281.97
2022-08-18T18:11:04.629Z,100296.72
2022-08-18T18:13:34.104Z,100303.28
2022-08-18T18:16:35.294Z,100309.38
2022-08-18T18:19:12.397Z,100306.31
2022-08-18T18:22:00.788Z,100327.97
2022-08-18T18:24:34.728Z,100338.50
2022-08-18T18:27:22.545Z,100347.56
2022-08-18T18:30:27.586Z,100357.22
2022-08-18T18:33:14.919Z,100354.03
2022-08-18T18:35:55.498Z,100350.75
2022-08-18T18:38:40.664Z,100349.09
2022-08-18T18:41:13.305Z,100341.97
2022-08-18T18:43:46.714Z,100338.44
2022-08-18T18:46:25.167Z,100342.59
2022-08-18T18:49:10.201Z,100341.53
2022-08-18T18:52:05.964Z,100354.44
2022-08-18T18:55:04.695Z,100350.97
2022-08-18T18:58:07.449Z,100348.28
2022-08-18T19:01:03.733Z,100338.88
2022-08-18T19:03:49.349Z,100334.38
2022-08-18T19:06:41.046Z,100327.78
2022-08-18T19:09:21.770Z,100338.06
2022-08-18T19:12:24.345Z,100338.50
2022-08-18T19:15:00.305Z,100342.78
2022-08-18T19:17:49.794Z,100335.19
2022-08-18T19:22:02.055Z,100326.31
2022-08-18T19:24:29.938Z,100327.41
2022-08-18T19:27:03.734Z,100333.38
2022-08-18T19:29:40.767Z,100334.38
2022-08-18T19:32:23.409Z,100326.00
2022-08-18T19:34:55.669Z,100325.09
2022-08-18T19:37:40.898Z,100339.38
2022-08-18T19:40:27.176Z,100337.78
2022-08-18T19:43:23.674Z,100344.13
2022-08-18T19:46:44.041Z,100349.69
2022-08-18T19:49:34.764Z,100348.72
2022-08-18T19:52:49.513Z,100352.63
2022-08-18T19:56:07.411Z,100354.50
2022-08-18T19:59:18.654Z,100346.88
2022-08-18T20:01:52.110Z,100335.16
2022-08-18T20:05:12.590Z,100339.69
2022-08-18T20:08:54.911Z,100343.53
2022-08-18T20:12:00.999Z,100351.72
2022-08-18T20:14:32.113Z,100359.78
2022-08-18T20:17:22.564Z,100368.41
2022-08-18T20:19:57.348Z,100365.94
2022-08-18T20:22:25.048Z,100373.78
2022-08-18T20:25:17.399Z,100356.22
2022-08-18T20:28:12.921Z,100348.44
2022-08-18T20:31:04.828Z,100345.00
2022-08-18T20:33:46.057Z,100348.72
2022-08-18T20:36:36.599Z,100345.00
2022-08-18T20:39:41.789Z,100344.41
2022-08-18T20:42:20.971Z,100334.97
2022-08-18T20:44:51.990Z,100337.22
2022-08-18T20:48:05.775Z,100343.78
2022-08-18T20:51:02.164Z,100338.84
2022-08-18T20:54:01.467Z,100346.44
2022-08-18T20:56:53.957Z,100349.50
2022-08-18T20:59:33.256Z,100349.69
2022-08-18T21:02:25.304Z,100348.28
2022-08-18T21:04:59.000Z,100350.28
2022-08-18T21:07:59.081Z,100332.09
2022-08-18T21:10:31.008Z,100343.56
2022-08-18T21:13:07.815Z,100345.44
2022-08-18T21:15:38.199Z,100349.50
2022-08-18T21:18:19.534Z,100359.19
2022-08-18T21:20:52.944Z,100372.38
2022-08-18T21:23:41.745Z,100377.97
2022-08-18T21:26:16.309Z,100373.47
2022-08-18T21:28:51.526Z,100378.78
2022-08-18T21:31:43.618Z,100379.63
2022-08-18T21:34:33.418Z,100373.03
2022-08-18T21:37:07.853Z,100366.53
2022-08-18T21:39:47.171Z,100363.03
2022-08-18T21:42:46.854Z,100357.47
2022-08-18T21:45:23.170Z,100355.66
2022-08-18T21:48:06.041Z,100358.13
2022-08-18T21:50:35.308Z,100353.13
2022-08-18T21:53:10.862Z,100345.34
2022-08-18T21:55:45.072Z,100337.00
2022-08-18T21:58:17.662Z,100334.78
2022-08-18T22:01:14.926Z,100311.50
2022-08-18T22:04:33.455Z,100311.09
2022-08-18T22:07:32.109Z,100311.94
2022-08-18T22:10:46.791Z,100326.06
2022-08-18T22:13:59.064Z,100326.16
2022-08-18T22:16:36.373Z,100323.44
2022-08-18T22:19:23.827Z,100324.66
2022-08-18T22:22:25.392Z,100321.66
2022-08-18T22:24:59.767Z,100316.28
2022-08-18T22:27:27.372Z,100316.28
2022-08-18T22:30:05.212Z,100320.97
2022-08-18T22:32:37.508Z,100317.28
2022-08-18T22:35:07.608Z,100314.63
2022-08-18T22:37:48.774Z,100311.72
2022-08-18T22:40:17.279Z,100314.63
2022-08-18T22:42:49.055Z,100321.91
2022-08-18T22:45:16.177Z,100321.66
2022-08-18T22:47:44.967Z,100318.88
2022-08-18T22:50:13.998Z,100307.78
2022-08-18T22:52:48.265Z,100311.69
2022-08-18T22:55:22.115Z,100310.59
2022-08-18T22:57:55.853Z,100315.91
2022-08-18T23:00:25.336Z,100318.78
2022-08-18T23:02:54.368Z,100326.47
2022-08-18T23:05:21.876Z,100320.88
2022-08-18T23:07:49.804Z,100319.22
2022-08-18T23:10:17.524Z,100307.53
2022-08-18T23:12:47.017Z,100307.22
2022-08-18T23:15:17.604Z,100306.50
2022-08-18T23:17:44.661Z,100302.84
2022-08-18T23:20:19.600Z,100296.56
2022-08-18T23:22:48.196Z,100300.47
2022-08-18T23:25:16.126Z,100296.38
2022-08-18T23:27:43.314Z,100298.41
2022-08-18T23:30:11.495Z,100301.88
2022-08-18T23:32:38.496Z,100305.88
2022-08-18T23:35:05.970Z,100314.97
2022-08-18T23:37:33.039Z,100313.56
2022-08-18T23:40:00.068Z,100310.31
2022-08-18T23:42:27.364Z,100312.59
2022-08-18T23:44:58.867Z,100323.63
2022-08-18T23:47:26.202Z,100330.03
2022-08-18T23:49:54.307Z,100329.00
2022-08-18T23:52:21.460Z,100328.78
2022-08-18T23:54:48.450Z,100326.00
2022-08-18T23:57:15.434Z,100320.22
2022-08-18T23:59:42.562Z,100330.94
